Island Falls, Canada
Current Conditions -  °F | °C
As of 5:00 PM on Wednesday 22 Oct 2014 (Local Time) from CYFO Reporting Station
Broken Clouds Broken Clouds  
Wind Chill: 50°   Ceiling: 8000
Heat Index: 50°   Visibility: 15mi
Dew Point: 45°   Wind: 7mph
Humidity: 82%   Direction: 360°N
Pressure: 29.64"   Gusts: NA
Location:  55.53°N, 102.33°W
Report Text: CYFO 222300Z 36006KT 15SM BKN080 10/07 A2964 RMK AC5 LAST OBS/NEXT 231100UTC SLP048
Loading
Personal Weather Stations






























Interactive Weather Map
Tropical Storm Tracking
New forecast layout! Learn more

10-Day Weather Forecast

Advertisements
Track Severe Weather on mobile